Thunderstorms From: 25-05-2018 15:00 Until: 26-05-2018 15:00 warning for: Thunderstorms Level: Yellow info button

Although rather usual in this region, locally or potentially dangerous phenomena are expected. (such as local winds, summer thunderstorms, rising streams or high waves) Be aware and pay attention to the latest weather updates, especially if you carry out activities exposed to weather or close to a stream or shoreline. 


Meteo18 Weather Cam more information Meteo18 Weather Cam


warning for Thunderstorms more information blitzortung!


Rain radar more information rain snow radar


Visit our other weather sites:

Template documentation
and downloads

And another site



Weather Underground History page Text

Daily Summary for April 11, 2016 Units:  Metric    English   Both
« Previous Day
Next Day »
Daily Weekly Monthly Yearly Custom
  High: Low: Average:
Temperature: -17.8 °C -14.6 °C -11.8 °C
Dew Point: -17.8 °C -14.9 °C -13.2 °C
Humidity: Humidity % 63 % 86 %
Wind Speed: 0 km/h 0 km/h 1.6 km/h
Wind Gust: 0 km/h - -
Wind:- - SW
Pressure: 0 hPa 33948 hPa -
Precipitation: 259.08 mm    
Historical Graphs
 
 
Tabular Data for April 11, 2016
Time Temperature Dew Point Pressure Wind Wind Speed Wind Gust Humidity Rainfall Rate (Hourly)
-17.8 °C -17.8 °C 0 hPa Calm     Humidity % 0 mm
00:02 -12.1 °C -14.3 °C 33948 hPa Calm     76 % 0 mm
00:07 -12.3 °C -14.4 °C 33948 hPa Calm     77 % 0 mm
00:12 -12.2 °C -14.3 °C 33948 hPa Calm     77 % 0 mm
00:17 -12.1 °C -14.3 °C 33948 hPa Calm   5.1 km/h 76 % 0 mm
00:22 -12.1 °C -14.3 °C 33958.2 hPa Calm   5.1 km/h 76 % 0 mm
00:32 -12.4 °C -14.4 °C 33958.2 hPa Calm     78 % 0 mm
00:47 -12.7 °C -14.4 °C 33958.2 hPa Calm     81 % 0 mm
00:52 -12.9 °C -14.6 °C 33958.2 hPa Calm     82 % 0 mm
00:57 -13.1 °C -14.7 °C 33958.2 hPa Calm     82 % 0 mm
01:02 -13.2 °C -14.7 °C 33958.2 hPa Calm     83 % 0 mm
01:07 -13.2 °C -14.6 °C 33971.7 hPa Calm     84 % 0 mm
01:12 -13.3 °C -14.7 °C 33971.7 hPa Calm     84 % 0 mm
01:17 -13.4 °C -14.8 °C 33971.7 hPa Calm     84 % 0 mm
01:22 -13.5 °C -14.8 °C 33981.9 hPa Calm     85 % 0 mm
01:27 -13.6 °C -14.8 °C 33981.9 hPa Calm     86 % 0 mm
01:32 -13.6 °C -14.8 °C 33981.9 hPa Calm     86 % 0 mm
01:37 -13.6 °C -14.7 °C 33981.9 hPa Calm     87 % 0 mm
01:42 -13.6 °C -14.7 °C 33981.9 hPa Calm     87 % 0 mm
01:47 -13.7 °C -14.8 °C 33992.1 hPa Calm     87 % 0 mm
01:52 -13.7 °C -14.8 °C 33981.9 hPa Calm     87 % 0 mm
01:57 -13.5 °C -14.6 °C 33981.9 hPa Calm   2.6 km/h 87 % 0 mm
02:02 -13.4 °C -14.7 °C 33981.9 hPa Calm   2.6 km/h 86 % 0 mm
02:07 -13.2 °C -14.4 °C 33992.1 hPa Calm   2.6 km/h 86 % 0 mm
02:22 -12.4 °C -14.2 °C 33981.9 hPa Calm   5.1 km/h 81 % 0 mm
02:32 -12.4 °C -14.3 °C 33971.7 hPa NW 2.6 km/h 2.6 km/h 80 % 0 mm
02:42 -12.2 °C -14.2 °C 33981.9 hPa Calm   5.1 km/h 79 % 0 mm
02:47 -12.3 °C -14.3 °C 33981.9 hPa Calm   5.1 km/h 79 % 0 mm
02:52 -12.4 °C -14.3 °C 33981.9 hPa Calm   5.1 km/h 79 % 0 mm
02:57 -12.2 °C -14.3 °C 33981.9 hPa Calm   5.1 km/h 78 % 0 mm
03:02 -12.1 °C -14.2 °C 33992.1 hPa Calm   5.1 km/h 78 % 0 mm
03:12 -12.2 °C -14.3 °C 33981.9 hPa Calm   2.6 km/h 78 % 0 mm
03:17 -12.1 °C -14.2 °C 33992.1 hPa Calm   2.6 km/h 78 % 0 mm
03:22 -12.1 °C -14.2 °C 33992.1 hPa Calm   10.3 km/h 78 % 0 mm
03:32 -12.2 °C -14 °C 33992.1 hPa Calm   10.3 km/h 80 % 0 mm
03:42 -12.3 °C -14 °C 33992.1 hPa Calm   2.6 km/h 81 % 0 mm
03:52 -11.9 °C -13.9 °C 33992.1 hPa WNW 2.6 km/h 7.7 km/h 79 % 0 mm
03:57 -11.8 °C -13.7 °C 33992.1 hPa West 2.6 km/h 10.3 km/h 79 % 0 mm
04:02 -11.7 °C -13.6 °C 33992.1 hPa Calm   10.3 km/h 80 % 0 mm
04:07 -11.8 °C -13.5 °C 34005.6 hPa Calm   10.3 km/h 81 % 0 mm
04:12 -11.9 °C -13.5 °C 34005.6 hPa Calm   10.3 km/h 82 % 0 mm
04:17 -12 °C -13.6 °C 34005.6 hPa Calm   7.7 km/h 83 % 0 mm
04:22 -12.1 °C -13.6 °C 34005.6 hPa Calm   7.7 km/h 84 % 0 mm
04:27 -12.1 °C -13.6 °C 34005.6 hPa Calm   7.7 km/h 84 % 0 mm
04:32 -12.1 °C -13.7 °C 34005.6 hPa Calm   2.6 km/h 83 % 0 mm
04:37 -12.1 °C -13.7 °C 34005.6 hPa Calm   7.7 km/h 83 % 0 mm
04:47 -12.2 °C -13.6 °C 34015.8 hPa Calm   2.6 km/h 85 % 0 mm
04:52 -12.3 °C -13.6 °C 34015.8 hPa Calm   2.6 km/h 85 % 0 mm
04:57 -12.3 °C -13.6 °C 34015.8 hPa Calm   7.7 km/h 85 % 0 mm
05:02 -12.3 °C -13.6 °C 34015.8 hPa Calm   7.7 km/h 86 % 0 mm
05:07 -12.3 °C -13.6 °C 34015.8 hPa Calm   5.1 km/h 86 % 0 mm
05:12 -12.4 °C -13.6 °C 34015.8 hPa Calm   2.6 km/h 87 % 0 mm
05:17 -12.4 °C -13.6 °C 34015.8 hPa Calm   2.6 km/h 87 % 0 mm
05:22 -12.4 °C -13.5 °C 34015.8 hPa Calm   2.6 km/h 88 % 0 mm
05:27 -12.4 °C -13.5 °C 34015.8 hPa Calm   2.6 km/h 88 % 0 mm
05:32 -12.5 °C -13.4 °C 34029.3 hPa Calm   2.6 km/h 89 % 0 mm
05:37 -12.6 °C -13.5 °C 34029.3 hPa Calm   2.6 km/h 89 % 0 mm
05:42 -12.6 °C -13.5 °C 34029.3 hPa Calm   2.6 km/h 90 % 0 mm
05:47 -12.6 °C -13.5 °C 34029.3 hPa WSW 2.6 km/h 5.1 km/h 90 % 0 mm
05:52 -12.6 °C -13.5 °C 34029.3 hPa Calm   5.1 km/h 89 % 0 mm
05:57 -12.6 °C -13.5 °C 34029.3 hPa Calm   5.1 km/h 89 % 0 mm
06:02 -12.6 °C -13.4 °C 34029.3 hPa SW 2.6 km/h 5.1 km/h 90 % 0 mm
06:07 -12.6 °C -13.5 °C 34029.3 hPa Calm   2.6 km/h 89 % 7.62 mm
06:12 -12.6 °C -13.5 °C 34029.3 hPa Calm   5.1 km/h 89 % 7.62 mm
06:17 -12.6 °C -13.4 °C 34029.3 hPa Calm   5.1 km/h 90 % 7.62 mm
06:22 -12.6 °C -13.4 °C 34029.3 hPa Calm   5.1 km/h 90 % 7.62 mm
06:27 -12.6 °C -13.5 °C 34029.3 hPa Calm   2.6 km/h 90 % 7.62 mm
06:32 -12.6 °C -13.5 °C 34029.3 hPa Calm   2.6 km/h 90 % 7.62 mm
06:37 -12.6 °C -13.4 °C 34039.5 hPa Calm   2.6 km/h 91 % 7.62 mm
06:42 -12.6 °C -13.4 °C 34029.3 hPa Calm     91 % 7.62 mm
06:47 -12.6 °C -13.4 °C 34029.3 hPa Calm     91 % 7.62 mm
06:52 -12.7 °C -13.4 °C 34039.5 hPa Calm   2.6 km/h 91 % 7.62 mm
06:57 -12.6 °C -13.3 °C 34039.5 hPa Calm   2.6 km/h 92 % 7.62 mm
07:02 -12.6 °C -13.3 °C 34039.5 hPa Calm   2.6 km/h 92 % 7.62 mm
07:07 -12.6 °C -13.3 °C 34049.6 hPa Calm   2.6 km/h 92 % 0 mm
07:12 -12.6 °C -13.3 °C 34049.6 hPa Calm   2.6 km/h 92 % 0 mm
07:17 -12.6 °C -13.3 °C 34049.6 hPa Calm   2.6 km/h 92 % 0 mm
07:22 -12.7 °C -13.3 °C 34049.6 hPa Calm   2.6 km/h 93 % 7.62 mm
07:27 -12.7 °C -13.3 °C 34049.6 hPa Calm     93 % 7.62 mm
07:32 -12.6 °C -13.2 °C 34049.6 hPa Calm     93 % 7.62 mm
07:37 -12.6 °C -13.1 °C 34049.6 hPa Calm     94 % 12.7 mm
07:42 -12.6 °C -13.1 °C 34049.6 hPa Calm     94 % 12.7 mm
07:47 -12.6 °C -13.1 °C 34063.2 hPa Calm     94 % 12.7 mm
07:52 -12.6 °C -13.1 °C 34063.2 hPa Calm   2.6 km/h 94 % 12.7 mm
07:57 -12.6 °C -13.1 °C 34063.2 hPa Calm   2.6 km/h 95 % 12.7 mm
08:02 -12.6 °C -13.1 °C 34073.3 hPa Calm   2.6 km/h 95 % 12.7 mm
08:07 -12.6 °C -13.1 °C 34073.3 hPa Calm   2.6 km/h 95 % 12.7 mm
08:12 -12.6 °C -13.1 °C 34073.3 hPa Calm   2.6 km/h 95 % 12.7 mm
08:17 -12.6 °C -13.1 °C 34073.3 hPa Calm   2.6 km/h 95 % 20.32 mm
08:22 -12.6 °C -13 °C 34073.3 hPa Calm   2.6 km/h 95 % 33.02 mm
08:27 -12.6 °C -12.9 °C 34073.3 hPa Calm   2.6 km/h 96 % 38.1 mm
08:32 -12.6 °C -12.9 °C 34073.3 hPa Calm   2.6 km/h 96 % 38.1 mm
08:37 -12.6 °C -12.9 °C 34073.3 hPa Calm   5.1 km/h 96 % 45.72 mm
08:42 -12.6 °C -12.9 °C 34073.3 hPa Calm   5.1 km/h 96 % 50.8 mm
08:47 -12.6 °C -12.9 °C 34073.3 hPa Calm   2.6 km/h 96 % 58.42 mm
08:52 -12.6 °C -12.9 °C 34073.3 hPa Calm   2.6 km/h 96 % 58.42 mm
08:57 -12.6 °C -12.9 °C 34073.3 hPa Calm   2.6 km/h 96 % 58.42 mm
09:02 -12.5 °C -12.8 °C 34063.2 hPa Calm   2.6 km/h 96 % 71.12 mm
09:07 -12.4 °C -12.8 °C 34063.2 hPa Calm   2.6 km/h 96 % 71.12 mm
09:12 -12.4 °C -12.8 °C 34063.2 hPa Calm   2.6 km/h 96 % 63.5 mm
09:17 -12.4 °C -12.8 °C 34063.2 hPa Calm   2.6 km/h 96 % 58.42 mm
09:27 -12.4 °C -12.8 °C 34073.3 hPa Calm   2.6 km/h 96 % 38.1 mm
09:32 -12.4 °C -12.8 °C 34073.3 hPa Calm   2.6 km/h 96 % 38.1 mm
09:37 -12.4 °C -12.8 °C 34086.9 hPa Calm   2.6 km/h 96 % 33.02 mm
09:42 -12.4 °C -12.8 °C 34073.3 hPa West 2.6 km/h 2.6 km/h 96 % 25.4 mm
09:52 -12.4 °C -12.7 °C 34086.9 hPa Calm   2.6 km/h 96 % 25.4 mm
09:57 -12.4 °C -12.7 °C 34086.9 hPa Calm   2.6 km/h 96 % 25.4 mm
10:02 -12.4 °C -12.7 °C 34086.9 hPa Calm     96 % 12.7 mm
10:07 -12.4 °C -12.8 °C 34086.9 hPa Calm     96 % 20.32 mm
10:12 -12.4 °C -12.8 °C 34086.9 hPa Calm     96 % 38.1 mm
10:17 -12.4 °C -12.8 °C 34086.9 hPa Calm     96 % 38.1 mm
10:22 -12.4 °C -12.7 °C 34086.9 hPa Calm     96 % 38.1 mm
10:27 -12.3 °C -12.7 °C 34086.9 hPa Calm     96 % 45.72 mm
10:32 -12.3 °C -12.7 °C 34086.9 hPa Calm     96 % 45.72 mm
10:37 -12.3 °C -12.6 °C 34086.9 hPa Calm     96 % 45.72 mm
10:42 -12.3 °C -12.6 °C 34086.9 hPa Calm     96 % 45.72 mm
10:47 -12.3 °C -12.7 °C 34086.9 hPa Calm     95 % 38.1 mm
10:52 -12.3 °C -12.6 °C 34086.9 hPa Calm     96 % 38.1 mm
10:57 -12.1 °C -12.4 °C 34086.9 hPa Calm     96 % 33.02 mm
11:02 -12.1 °C -12.4 °C 34086.9 hPa Calm     96 % 33.02 mm
11:07 -11.9 °C -12.2 °C 34086.9 hPa Calm     96 % 20.32 mm
11:12 -11.8 °C -12.2 °C 34086.9 hPa Calm     96 % 12.7 mm
11:17 -11.8 °C -12.3 °C 34086.9 hPa Calm     95 % 7.62 mm
11:22 -11.8 °C -12.2 °C 34086.9 hPa Calm     95 % 0 mm
11:27 -11.7 °C -12.2 °C 34086.9 hPa Calm     95 % 0 mm
11:32 -11.6 °C -12.1 °C 34086.9 hPa Calm     94 % 0 mm
11:37 -11.6 °C -12.1 °C 34086.9 hPa Calm     94 % 0 mm
11:42 -11.6 °C -12.2 °C 34086.9 hPa Calm     93 % 0 mm
11:47 -11.5 °C -12.1 °C 34086.9 hPa Calm     93 % 0 mm
11:57 -11.3 °C -12 °C 34086.9 hPa Calm   2.6 km/h 92 % 0 mm
12:02 -11.2 °C -11.9 °C 34086.9 hPa Calm   2.6 km/h 91 % 0 mm
12:07 -11.1 °C -12 °C 34086.9 hPa Calm   2.6 km/h 90 % 0 mm
12:12 -11 °C -11.9 °C 34086.9 hPa Calm   2.6 km/h 90 % 0 mm
12:17 -11 °C -12 °C 34086.9 hPa Calm   2.6 km/h 89 % 0 mm
12:22 -10.9 °C -11.9 °C 34086.9 hPa Calm   2.6 km/h 89 % 0 mm
12:27 -11 °C -12.3 °C 34086.9 hPa Calm   2.6 km/h 86 % 0 mm
12:32 -11.1 °C -12.2 °C 34086.9 hPa Calm   2.6 km/h 87 % 0 mm
12:42 -11.2 °C -12.2 °C 34097 hPa Calm   2.6 km/h 88 % 0 mm
12:47 -11.2 °C -12.3 °C 34097 hPa Calm   2.6 km/h 88 % 0 mm
12:52 -11.3 °C -12.3 °C 34097 hPa Calm   2.6 km/h 89 % 0 mm
13:02 -11.2 °C -11.9 °C 34097 hPa Calm     91 % 0 mm
13:07 -11.1 °C -12 °C 34097 hPa Calm   2.6 km/h 90 % 7.62 mm
13:12 -11.1 °C -12 °C 34097 hPa Calm   2.6 km/h 90 % 12.7 mm
13:17 -11.2 °C -11.9 °C 34097 hPa WSW 2.6 km/h 2.6 km/h 91 % 12.7 mm
13:27 -11.3 °C -12 °C 34097 hPa SW 2.6 km/h 7.7 km/h 92 % 20.32 mm
13:32 -11.3 °C -11.9 °C 34107.2 hPa SSW 5.1 km/h 7.7 km/h 93 % 20.32 mm
13:37 -11.4 °C -12.2 °C 34107.2 hPa SW 12.9 km/h 12.9 km/h 91 % 20.32 mm
13:42 -11.4 °C -12.2 °C 34097 hPa West 5.1 km/h 20.8 km/h 91 % 20.32 mm
13:47 -11.4 °C -12.2 °C 34097 hPa SW 7.7 km/h 20.8 km/h 91 % 20.32 mm
13:52 -11.4 °C -12.2 °C 34097 hPa Calm   20.8 km/h 91 % 20.32 mm
13:57 -11.4 °C -12.2 °C 34086.9 hPa West 5.1 km/h 12.9 km/h 91 % 25.4 mm
14:02 -11.4 °C -12.2 °C 34086.9 hPa West 2.6 km/h 10.3 km/h 92 % 25.4 mm
14:07 -11.4 °C -12.2 °C 34107.2 hPa West 2.6 km/h 7.7 km/h 92 % 20.32 mm
14:12 -11.5 °C -12.4 °C 34097 hPa West 15.6 km/h 15.6 km/h 90 % 12.7 mm
14:17 -11.4 °C -12.2 °C 34107.2 hPa Calm   23.3 km/h 91 % 12.7 mm
14:22 -11.3 °C -12.2 °C 34107.2 hPa SW 7.7 km/h 23.3 km/h 90 % 12.7 mm
14:32 -11 °C -12.1 °C 34107.2 hPa SW 12.9 km/h 23.3 km/h 88 % 7.62 mm
14:37 -11.1 °C -12.1 °C 34107.2 hPa South 10.3 km/h 23.3 km/h 88 % 7.62 mm
14:42 -10.9 °C -12 °C 34107.2 hPa West 10.3 km/h 23.3 km/h 88 % 7.62 mm
14:47 -10.9 °C -12.2 °C 34107.2 hPa ESE 2.6 km/h 23.3 km/h 86 % 7.62 mm
14:52 -10.9 °C -12.2 °C 34107.2 hPa Calm   18.2 km/h 86 % 7.62 mm
14:57 -10.8 °C -12.2 °C 34107.2 hPa SW 10.3 km/h 18.2 km/h 85 % 0 mm
15:02 -10.6 °C -11.9 °C 34107.2 hPa West 2.6 km/h 18.2 km/h 85 % 0 mm
15:07 -10.2 °C -11.7 °C 34107.2 hPa West 2.6 km/h 18.2 km/h 84 % 0 mm
15:12 -9.8 °C -11.7 °C 34107.2 hPa SSE 5.1 km/h 18.2 km/h 80 % 0 mm
15:17 -9.7 °C -11.8 °C 34107.2 hPa SW 15.6 km/h 18.2 km/h 78 % 0 mm
15:22 -9.6 °C -11.7 °C 34107.2 hPa SW 10.3 km/h 23.3 km/h 78 % 0 mm
15:27 -9.5 °C -12.1 °C 34107.2 hPa SW 7.7 km/h 23.3 km/h 74 % 0 mm
15:32 -9.5 °C -11.9 °C 34107.2 hPa SSW 5.1 km/h 23.3 km/h 75 % 0 mm
15:42 -9.5 °C -11.7 °C 34107.2 hPa SW 10.3 km/h 20.8 km/h 77 % 0 mm
15:47 -9.3 °C -11.6 °C 34120.7 hPa SW 2.6 km/h 20.8 km/h 76 % 0 mm
15:57 -9 °C -11.9 °C 34120.7 hPa WSW 2.6 km/h 20.8 km/h 71 % 0 mm
16:07 -9.1 °C -12.4 °C 34107.2 hPa SW 2.6 km/h 12.9 km/h 68 % 0 mm
16:12 -8.9 °C -11.9 °C 34107.2 hPa ENE 2.6 km/h 12.9 km/h 71 % 0 mm
16:17 -8.7 °C -11.9 °C 34107.2 hPa East 5.1 km/h 12.9 km/h 69 % 0 mm
16:22 -8.9 °C -12.6 °C 34107.2 hPa WSW 5.1 km/h 12.9 km/h 65 % 0 mm
16:32 -9.3 °C -12.8 °C 34107.2 hPa West 5.1 km/h 15.6 km/h 66 % 0 mm
16:37 -9.3 °C -12.8 °C 34107.2 hPa WSW 5.1 km/h 18.2 km/h 66 % 0 mm
16:42 -9.5 °C -12.8 °C 34107.2 hPa SSW 5.1 km/h 18.2 km/h 68 % 0 mm
16:47 -9.7 °C -12.9 °C 34107.2 hPa ESE 2.6 km/h 15.6 km/h 68 % 0 mm
16:52 -9.8 °C -12.7 °C 34107.2 hPa SW 2.6 km/h 15.6 km/h 71 % 0 mm
16:57 -9.8 °C -12.7 °C 34107.2 hPa SW 5.1 km/h 15.6 km/h 71 % 0 mm
17:02 -9.7 °C -12.7 °C 34107.2 hPa Calm   15.6 km/h 70 % 0 mm
17:07 -9.6 °C -12.7 °C 34107.2 hPa WSW 5.1 km/h 15.6 km/h 69 % 0 mm
17:12 -9.3 °C -12.2 °C 34107.2 hPa WSW 5.1 km/h 10.3 km/h 71 % 0 mm
17:17 -9.5 °C -13.1 °C 34107.2 hPa Calm   12.9 km/h 65 % 0 mm
17:22 -9.6 °C -13 °C 34107.2 hPa West 5.1 km/h 12.9 km/h 67 % 0 mm
17:27 -9.8 °C -13.1 °C 34107.2 hPa West 2.6 km/h 12.9 km/h 68 % 0 mm
17:32 -9.9 °C -12.9 °C 34107.2 hPa WSW 5.1 km/h 10.3 km/h 70 % 0 mm
17:37 -9.6 °C -12.6 °C 34107.2 hPa WSW 7.7 km/h 10.3 km/h 70 % 0 mm
17:42 -9.1 °C -12 °C 34107.2 hPa WSW 7.7 km/h 12.9 km/h 71 % 0 mm
17:47 -8.9 °C -12.6 °C 34107.2 hPa WSW 5.1 km/h 12.9 km/h 65 % 0 mm
17:52 -8.8 °C -12.3 °C 34107.2 hPa SW 5.1 km/h 15.6 km/h 66 % 0 mm
17:57 -8.8 °C -12.6 °C 34107.2 hPa Calm   15.6 km/h 64 % 0 mm
18:02 -8.7 °C -12.2 °C 34107.2 hPa SW 7.7 km/h 12.9 km/h 66 % 0 mm
18:07 -8.7 °C -12.4 °C 34107.2 hPa WSW 5.1 km/h 10.3 km/h 64 % 0 mm
18:12 -8.7 °C -12.4 °C 34107.2 hPa West 7.7 km/h 10.3 km/h 65 % 0 mm
18:17 -9.1 °C -12.9 °C 34107.2 hPa SE 2.6 km/h 12.9 km/h 63 % 0 mm
18:22 -9.2 °C -12.8 °C 34107.2 hPa West 2.6 km/h 12.9 km/h 65 % 0 mm
18:27 -9.4 °C -12.7 °C 34107.2 hPa West 2.6 km/h 12.9 km/h 68 % 0 mm
18:32 -9.3 °C -12.6 °C 34107.2 hPa WSW 2.6 km/h 12.9 km/h 68 % 0 mm
18:42 -9.8 °C -13 °C 34107.2 hPa Calm   7.7 km/h 68 % 0 mm
18:47 -9.8 °C -12.6 °C 34097 hPa Calm   5.1 km/h 72 % 0 mm
18:52 -9.7 °C -12.7 °C 34097 hPa SW 2.6 km/h 7.7 km/h 70 % 0 mm
18:57 -9.7 °C -12.6 °C 34097 hPa Calm   7.7 km/h 71 % 0 mm
19:02 -9.8 °C -12.7 °C 34097 hPa Calm   7.7 km/h 71 % 0 mm
19:07 -9.8 °C -12.7 °C 34097 hPa Calm   5.1 km/h 71 % 0 mm
19:12 -9.8 °C -12.6 °C 34097 hPa Calm   5.1 km/h 72 % 0 mm
19:17 -9.9 °C -12.4 °C 34107.2 hPa Calm   5.1 km/h 74 % 0 mm
19:27 -10.1 °C -12.6 °C 34107.2 hPa SSW 5.1 km/h 12.9 km/h 74 % 0 mm
19:32 -10.1 °C -12.7 °C 34107.2 hPa WSW 2.6 km/h 12.9 km/h 74 % 0 mm
19:42 -10.4 °C -12.7 °C 34107.2 hPa Calm   5.1 km/h 76 % 0 mm
19:47 -10.6 °C -12.8 °C 34107.2 hPa Calm   2.6 km/h 76 % 0 mm
19:52 -10.7 °C -12.9 °C 34107.2 hPa Calm   2.6 km/h 77 % 0 mm
19:57 -10.9 °C -13 °C 34107.2 hPa Calm     78 % 0 mm
20:02 -11.1 °C -13 °C 34107.2 hPa Calm     79 % 0 mm
20:07 -11.2 °C -13.1 °C 34107.2 hPa Calm   2.6 km/h 80 % 0 mm
20:12 -11.3 °C -13.1 °C 34120.7 hPa Calm   2.6 km/h 81 % 0 mm
20:22 -11.8 °C -13.3 °C 34120.7 hPa Calm     83 % 0 mm
20:32 -12.2 °C -13.4 °C 34120.7 hPa Calm     86 % 0 mm
20:37 -12.3 °C -13.5 °C 34120.7 hPa Calm     87 % 0 mm
20:42 -12.3 °C -13.2 °C 34120.7 hPa Calm     89 % 0 mm
20:47 -12.2 °C -13.2 °C 34144.4 hPa SW 20.8 km/h 20.8 km/h 88 % 0 mm
20:52 -12.1 °C -13.3 °C 34164.7 hPa West 25.9 km/h 36.2 km/h 86 % 0 mm
20:57 -12.4 °C -13.3 °C 34178.3 hPa SW 33.6 km/h 38.8 km/h 90 % 12.7 mm
21:02 -12.6 °C -13.2 °C 34188.4 hPa SSW 12.9 km/h 38.8 km/h 92 % 58.42 mm
21:07 -12.6 °C -13.3 °C 34178.3 hPa SSW 2.6 km/h 38.8 km/h 92 % 83.82 mm
21:12 -12.7 °C -13.3 °C 34178.3 hPa WSW 2.6 km/h 33.6 km/h 92 % 83.82 mm
21:17 -12.7 °C -13.4 °C 34178.3 hPa ENE 2.6 km/h 28.5 km/h 92 % 96.52 mm
21:22 -12.7 °C -13.3 °C 34178.3 hPa Calm   15.6 km/h 93 % 96.52 mm
21:27 -12.8 °C -13.4 °C 34178.3 hPa SSE 2.6 km/h 12.9 km/h 92 % 96.52 mm
21:32 -12.8 °C -13.5 °C 34178.3 hPa ENE 2.6 km/h 12.9 km/h 92 % 96.52 mm
21:37 -12.8 °C -13.5 °C 34178.3 hPa Calm   12.9 km/h 92 % 96.52 mm
21:42 -12.9 °C -13.5 °C 34178.3 hPa Calm   5.1 km/h 93 % 96.52 mm
21:47 -12.9 °C -13.5 °C 34178.3 hPa Calm   2.6 km/h 93 % 96.52 mm
21:52 -12.9 °C -13.6 °C 34178.3 hPa Calm   2.6 km/h 93 % 96.52 mm
21:57 -12.9 °C -13.4 °C 34178.3 hPa Calm   2.6 km/h 94 % 58.42 mm
22:02 -13 °C -13.5 °C 34178.3 hPa Calm     94 % 33.02 mm
22:07 -13.1 °C -13.6 °C 34178.3 hPa Calm   2.6 km/h 94 % 12.7 mm
22:12 -13.2 °C -13.7 °C 34178.3 hPa Calm   2.6 km/h 94 % 7.62 mm
22:17 -13.3 °C -13.8 °C 34178.3 hPa Calm   2.6 km/h 94 % 0 mm
22:22 -13.4 °C -13.9 °C 34178.3 hPa Calm   2.6 km/h 94 % 0 mm
22:27 -13.6 °C -14.1 °C 34178.3 hPa Calm     94 % 0 mm
22:32 -13.7 °C -14.2 °C 34178.3 hPa Calm     94 % 0 mm
22:37 -13.7 °C -14.2 °C 34178.3 hPa Calm     94 % 0 mm
22:42 -13.8 °C -14.3 °C 34178.3 hPa Calm     94 % 0 mm
22:52 -13.9 °C -14.3 °C 34178.3 hPa Calm   2.6 km/h 95 % 0 mm
22:57 -14.1 °C -14.4 °C 34178.3 hPa Calm   2.6 km/h 95 % 0 mm
23:02 -14.1 °C -14.5 °C 34178.3 hPa Calm   2.6 km/h 95 % 0 mm
23:07 -14.1 °C -14.5 °C 34178.3 hPa Calm   2.6 km/h 95 % 0 mm
23:12 -14.2 °C -14.6 °C 34164.7 hPa Calm     95 % 0 mm
23:17 -14.2 °C -14.6 °C 34164.7 hPa Calm     95 % 0 mm
23:22 -14.3 °C -14.7 °C 34164.7 hPa Calm     96 % 0 mm
23:27 -14.2 °C -14.6 °C 34164.7 hPa Calm   2.6 km/h 96 % 0 mm
23:32 -14.2 °C -14.6 °C 34164.7 hPa Calm   2.6 km/h 96 % 0 mm
23:37 -14.3 °C -14.7 °C 34164.7 hPa Calm   2.6 km/h 96 % 0 mm
23:42 -14.4 °C -14.8 °C 34164.7 hPa Calm   2.6 km/h 96 % 0 mm
23:47 -14.6 °C -14.9 °C 34164.7 hPa Calm     96 % 0 mm
23:52 -14.6 °C -14.9 °C 34164.7 hPa Calm     96 % 0 mm
23:57 -14.6 °C -14.9 °C 34164.7 hPa Calm   2.6 km/h 96 % 0 mm
Meteo18
Compliments of Weather Underground - 4 mb

Script developed by  Jim McMurry - jmcmurry@mwt.net Adapted for the template by  Wim van der Kuil - Leuven-Template.eu

You find our weather info also at:

European Weather Network

Weather Underground

Equipment we use:

Weather-station
Davis Vue

Weather-program
Meteobridge

Weather-server
Raspberry PI 2 B+

Provider
1 and 1

Davis Vue

Meteobridge

Raspberry PI 2 B+

1 and 1